sensor_id;sensor_type;location;lat;lon;timestamp;pressure;altitude;pressure_sealevel;temperature;humidity
24620;BME280;12763;55.802;37.404;2023-02-19T00:00:04;97919.13;;;-3.35;82.14
24620;BME280;12763;55.802;37.404;2023-02-19T00:02:39;97919.97;;;-3.35;81.86
24620;BME280;12763;55.802;37.404;2023-02-19T00:05:05;97906.47;;;-3.27;82.09
24620;BME280;12763;55.802;37.404;2023-02-19T00:07:31;97908.69;;;-3.63;82.87
24620;BME280;12763;55.802;37.404;2023-02-19T00:09:56;97907.34;;;-3.75;83.59
24620;BME280;12763;55.802;37.404;2023-02-19T00:12:22;97906.00;;;-3.63;83.35
24620;BME280;12763;55.802;37.404;2023-02-19T00:14:48;97899.56;;;-3.70;83.80
24620;BME280;12763;55.802;37.404;2023-02-19T00:17:14;97896.53;;;-3.59;82.86
24620;BME280;12763;55.802;37.404;2023-02-19T00:19:40;97894.31;;;-3.39;82.33
24620;BME280;12763;55.802;37.404;2023-02-19T00:22:05;97888.59;;;-3.36;81.14
24620;BME280;12763;55.802;37.404;2023-02-19T00:24:31;97890.13;;;-3.49;81.12
24620;BME280;12763;55.802;37.404;2023-02-19T00:26:57;97884.25;;;-3.61;81.46
24620;BME280;12763;55.802;37.404;2023-02-19T00:29:23;97893.50;;;-3.47;81.43
24620;BME280;12763;55.802;37.404;2023-02-19T00:31:50;97883.41;;;-3.70;82.36
24620;BME280;12763;55.802;37.404;2023-02-19T00:34:16;97896.53;;;-3.50;81.29
24620;BME280;12763;55.802;37.404;2023-02-19T00:36:42;97889.13;;;-3.48;80.66
24620;BME280;12763;55.802;37.404;2023-02-19T00:39:12;97885.75;;;-3.50;81.33
24620;BME280;12763;55.802;37.404;2023-02-19T00:41:38;97882.06;;;-3.58;81.36
24620;BME280;12763;55.802;37.404;2023-02-19T00:44:06;97867.56;;;-3.57;81.49
24620;BME280;12763;55.802;37.404;2023-02-19T00:46:34;97869.09;;;-3.54;81.55
24620;BME280;12763;55.802;37.404;2023-02-19T00:49:03;97857.78;;;-3.49;81.44
24620;BME280;12763;55.802;37.404;2023-02-19T00:51:31;97853.91;;;-3.55;80.81
24620;BME280;12763;55.802;37.404;2023-02-19T00:53:58;97859.31;;;-3.71;81.48
24620;BME280;12763;55.802;37.404;2023-02-19T00:56:24;97857.84;;;-3.98;83.59
24620;BME280;12763;55.802;37.404;2023-02-19T00:58:50;97861.19;;;-3.80;83.09
24620;BME280;12763;55.802;37.404;2023-02-19T01:01:17;97846.19;;;-3.66;82.71
24620;BME280;12763;55.802;37.404;2023-02-19T01:03:44;97843.66;;;-3.60;82.21
24620;BME280;12763;55.802;37.404;2023-02-19T01:06:12;97835.25;;;-3.65;81.96
24620;BME280;12763;55.802;37.404;2023-02-19T01:08:39;97841.44;;;-3.56;81.96
24620;BME280;12763;55.802;37.404;2023-02-19T01:11:06;97831.50;;;-3.56;82.06
24620;BME280;12763;55.802;37.404;2023-02-19T01:13:32;97852.03;;;-3.38;80.96
24620;BME280;12763;55.802;37.404;2023-02-19T01:16:11;97838.72;;;-3.32;80.80
24620;BME280;12763;55.802;37.404;2023-02-19T01:18:37;97826.59;;;-3.52;81.36
24620;BME280;12763;55.802;37.404;2023-02-19T01:21:08;97830.50;;;-3.63;81.84
24620;BME280;12763;55.802;37.404;2023-02-19T01:23:35;97833.16;;;-3.46;81.52
24620;BME280;12763;55.802;37.404;2023-02-19T01:26:08;97829.09;;;-3.42;81.82
24620;BME280;12763;55.802;37.404;2023-02-19T01:28:35;97814.28;;;-3.46;81.94
24620;BME280;12763;55.802;37.404;2023-02-19T01:31:02;97816.50;;;-3.58;82.95
24620;BME280;12763;55.802;37.404;2023-02-19T01:33:30;97816.00;;;-3.62;82.32
24620;BME280;12763;55.802;37.404;2023-02-19T01:35:56;97813.81;;;-3.66;82.15
24620;BME280;12763;55.802;37.404;2023-02-19T01:38:22;97813.66;;;-3.73;82.91
24620;BME280;12763;55.802;37.404;2023-02-19T01:40:58;97812.31;;;-3.61;82.30
24620;BME280;12763;55.802;37.404;2023-02-19T01:43:25;97803.41;;;-3.77;82.80
24620;BME280;12763;55.802;37.404;2023-02-19T01:45:51;97803.25;;;-3.92;83.52
24620;BME280;12763;55.802;37.404;2023-02-19T01:48:21;97805.44;;;-3.79;84.54
24620;BME280;12763;55.802;37.404;2023-02-19T01:50:55;97810.84;;;-3.87;84.30
24620;BME280;12763;55.802;37.404;2023-02-19T01:53:24;97813.69;;;-3.97;84.90
24620;BME280;12763;55.802;37.404;2023-02-19T01:55:55;97820.22;;;-3.75;83.94
24620;BME280;12763;55.802;37.404;2023-02-19T01:58:25;97815.38;;;-3.96;83.19
24620;BME280;12763;55.802;37.404;2023-02-19T02:00:52;97817.41;;;-3.82;83.55
24620;BME280;12763;55.802;37.404;2023-02-19T02:03:18;97822.59;;;-3.80;83.52
24620;BME280;12763;55.802;37.404;2023-02-19T02:08:14;97812.34;;;-3.85;83.63
24620;BME280;12763;55.802;37.404;2023-02-19T02:10:59;97807.63;;;-3.91;83.26
24620;BME280;12763;55.802;37.404;2023-02-19T02:13:26;97812.50;;;-3.70;82.50
24620;BME280;12763;55.802;37.404;2023-02-19T02:16:32;97800.56;;;-3.76;82.92
24620;BME280;12763;55.802;37.404;2023-02-19T02:19:26;97803.59;;;-3.79;82.51
24620;BME280;12763;55.802;37.404;2023-02-19T02:33:17;97790.28;;;-3.96;84.36
24620;BME280;12763;55.802;37.404;2023-02-19T02:36:17;97796.50;;;-3.88;84.13
24620;BME280;12763;55.802;37.404;2023-02-19T02:38:45;97799.19;;;-3.72;83.18
24620;BME280;12763;55.802;37.404;2023-02-19T02:41:13;97791.09;;;-3.80;83.07
24620;BME280;12763;55.802;37.404;2023-02-19T02:43:40;97795.00;;;-3.98;83.54
24620;BME280;12763;55.802;37.404;2023-02-19T02:46:12;97798.19;;;-3.95;84.21
24620;BME280;12763;55.802;37.404;2023-02-19T02:48:48;97784.88;;;-3.88;84.44
24620;BME280;12763;55.802;37.404;2023-02-19T02:51:30;97792.78;;;-3.95;83.77
24620;BME280;12763;55.802;37.404;2023-02-19T02:54:06;97791.97;;;-4.20;85.11
24620;BME280;12763;55.802;37.404;2023-02-19T02:56:53;97791.66;;;-3.92;84.43
24620;BME280;12763;55.802;37.404;2023-02-19T02:59:25;97801.38;;;-3.83;84.05
24620;BME280;12763;55.802;37.404;2023-02-19T03:01:57;97792.31;;;-3.98;84.47
24620;BME280;12763;55.802;37.404;2023-02-19T03:05:12;97788.78;;;-4.15;85.32
24620;BME280;12763;55.802;37.404;2023-02-19T03:08:01;97781.56;;;-4.06;84.48
24620;BME280;12763;55.802;37.404;2023-02-19T03:10:41;97791.81;;;-4.18;84.59
24620;BME280;12763;55.802;37.404;2023-02-19T03:13:15;97801.06;;;-3.96;84.61
24620;BME280;12763;55.802;37.404;2023-02-19T03:16:25;97794.81;;;-3.81;84.15
24620;BME280;12763;55.802;37.404;2023-02-19T03:19:10;97775.31;;;-3.99;84.52
24620;BME280;12763;55.802;37.404;2023-02-19T03:22:05;97776.63;;;-3.95;85.45
24620;BME280;12763;55.802;37.404;2023-02-19T03:24:51;97768.53;;;-3.95;85.88
24620;BME280;12763;55.802;37.404;2023-02-19T03:27:39;97775.63;;;-3.94;85.95
24620;BME280;12763;55.802;37.404;2023-02-19T03:30:17;97769.56;;;-3.80;86.35
24620;BME280;12763;55.802;37.404;2023-02-19T03:32:48;97771.09;;;-4.09;88.38
24620;BME280;12763;55.802;37.404;2023-02-19T03:35:28;97771.75;;;-3.91;87.16
24620;BME280;12763;55.802;37.404;2023-02-19T03:38:12;97762.09;;;-3.70;87.41
24620;BME280;12763;55.802;37.404;2023-02-19T03:41:16;97755.44;;;-4.14;87.72
24620;BME280;12763;55.802;37.404;2023-02-19T03:49:28;97758.59;;;-3.70;87.23
24620;BME280;12763;55.802;37.404;2023-02-19T03:52:03;97761.63;;;-3.89;87.38
24620;BME280;12763;55.802;37.404;2023-02-19T03:57:23;97749.81;;;-3.72;88.48
24620;BME280;12763;55.802;37.404;2023-02-19T04:00:17;97756.09;;;-3.88;87.90
24620;BME280;12763;55.802;37.404;2023-02-19T04:02:48;97753.00;;;-3.69;87.65
24620;BME280;12763;55.802;37.404;2023-02-19T04:05:19;97748.28;;;-3.67;86.66
24620;BME280;12763;55.802;37.404;2023-02-19T04:07:49;97749.31;;;-3.84;86.54
24620;BME280;12763;55.802;37.404;2023-02-19T04:10:22;97747.69;;;-3.93;86.84
24620;BME280;12763;55.802;37.404;2023-02-19T04:13:05;97748.53;;;-3.92;87.42
24620;BME280;12763;55.802;37.404;2023-02-19T04:15:34;97746.19;;;-4.03;87.36
24620;BME280;12763;55.802;37.404;2023-02-19T04:18:14;97741.44;;;-3.85;90.85
24620;BME280;12763;55.802;37.404;2023-02-19T04:20:43;97744.63;;;-3.82;88.47
24620;BME280;12763;55.802;37.404;2023-02-19T04:23:11;97739.25;;;-3.82;87.40
24620;BME280;12763;55.802;37.404;2023-02-19T04:25:40;97736.38;;;-3.88;88.81
24620;BME280;12763;55.802;37.404;2023-02-19T04:28:07;97740.25;;;-3.91;88.06
24620;BME280;12763;55.802;37.404;2023-02-19T04:30:33;97741.25;;;-3.84;87.19
24620;BME280;12763;55.802;37.404;2023-02-19T04:32:59;97737.88;;;-3.86;86.92
24620;BME280;12763;55.802;37.404;2023-02-19T04:35:25;97739.75;;;-3.86;87.48
24620;BME280;12763;55.802;37.404;2023-02-19T04:37:51;97740.94;;;-3.97;88.04
24620;BME280;12763;55.802;37.404;2023-02-19T04:40:16;97744.16;;;-3.93;87.63
24620;BME280;12763;55.802;37.404;2023-02-19T04:42:42;97739.59;;;-3.85;88.02
24620;BME280;12763;55.802;37.404;2023-02-19T04:45:08;97741.25;;;-3.92;87.97
24620;BME280;12763;55.802;37.404;2023-02-19T04:47:33;97745.47;;;-3.97;87.84
24620;BME280;12763;55.802;37.404;2023-02-19T04:49:59;97738.41;;;-3.90;87.38
24620;BME280;12763;55.802;37.404;2023-02-19T04:52:25;97731.47;;;-3.77;87.71
24620;BME280;12763;55.802;37.404;2023-02-19T04:54:51;97728.78;;;-3.77;87.52
24620;BME280;12763;55.802;37.404;2023-02-19T04:57:16;97735.56;;;-3.97;88.09
24620;BME280;12763;55.802;37.404;2023-02-19T04:59:42;97730.72;;;-4.09;89.28
24620;BME280;12763;55.802;37.404;2023-02-19T05:02:08;97732.03;;;-4.05;89.99
24620;BME280;12763;55.802;37.404;2023-02-19T05:04:33;97732.72;;;-3.95;89.77
24620;BME280;12763;55.802;37.404;2023-02-19T05:06:59;97732.00;;;-3.81;89.49
24620;BME280;12763;55.802;37.404;2023-02-19T05:09:25;97725.06;;;-3.84;89.35
24620;BME280;12763;55.802;37.404;2023-02-19T05:11:51;97723.06;;;-3.82;89.45
24620;BME280;12763;55.802;37.404;2023-02-19T05:14:16;97724.22;;;-3.68;88.67
24620;BME280;12763;55.802;37.404;2023-02-19T05:16:42;97715.91;;;-3.59;87.41
24620;BME280;12763;55.802;37.404;2023-02-19T05:19:11;97714.94;;;-3.66;87.55
24620;BME280;12763;55.802;37.404;2023-02-19T05:21:37;97714.13;;;-3.82;88.34
24620;BME280;12763;55.802;37.404;2023-02-19T05:24:05;97704.44;;;-4.07;88.53
24620;BME280;12763;55.802;37.404;2023-02-19T05:26:30;97713.00;;;-4.04;88.75
24620;BME280;12763;55.802;37.404;2023-02-19T05:28:56;97705.91;;;-3.97;88.87
24620;BME280;12763;55.802;37.404;2023-02-19T05:31:24;97708.81;;;-4.06;88.93
24620;BME280;12763;55.802;37.404;2023-02-19T05:33:49;97697.47;;;-3.86;88.31
24620;BME280;12763;55.802;37.404;2023-02-19T05:36:19;97693.41;;;-3.74;87.90
24620;BME280;12763;55.802;37.404;2023-02-19T05:38:46;97705.25;;;-3.99;88.09
24620;BME280;12763;55.802;37.404;2023-02-19T05:41:18;97696.84;;;-4.04;89.42
24620;BME280;12763;55.802;37.404;2023-02-19T05:43:45;97703.50;;;-3.84;88.41
24620;BME280;12763;55.802;37.404;2023-02-19T05:46:14;97700.81;;;-3.76;87.56
24620;BME280;12763;55.802;37.404;2023-02-19T05:48:40;97704.88;;;-3.80;87.45
24620;BME280;12763;55.802;37.404;2023-02-19T05:51:12;97702.66;;;-3.68;90.19
24620;BME280;12763;55.802;37.404;2023-02-19T05:53:38;97701.81;;;-3.77;87.87
24620;BME280;12763;55.802;37.404;2023-02-19T05:58:42;97701.38;;;-3.49;86.89
24620;BME280;12763;55.802;37.404;2023-02-19T06:01:17;97697.69;;;-3.48;85.66
24620;BME280;12763;55.802;37.404;2023-02-19T06:03:43;97694.88;;;-3.63;86.21
24620;BME280;12763;55.802;37.404;2023-02-19T06:06:13;97708.59;;;-3.42;85.71
24620;BME280;12763;55.802;37.404;2023-02-19T06:08:39;97701.97;;;-3.62;85.65
24620;BME280;12763;55.802;37.404;2023-02-19T06:11:05;97704.94;;;-3.18;85.00
24620;BME280;12763;55.802;37.404;2023-02-19T06:13:31;97700.69;;;-3.43;85.15
24620;BME280;12763;55.802;37.404;2023-02-19T06:15:56;97692.63;;;-3.51;85.06
24620;BME280;12763;55.802;37.404;2023-02-19T06:18:22;97694.56;;;-3.68;85.64
24620;BME280;12763;55.802;37.404;2023-02-19T06:20:48;97698.78;;;-3.74;85.02
24620;BME280;12763;55.802;37.404;2023-02-19T06:23:13;97692.84;;;-3.61;87.78
24620;BME280;12763;55.802;37.404;2023-02-19T06:25:40;97699.00;;;-3.44;86.55
24620;BME280;12763;55.802;37.404;2023-02-19T06:28:06;97697.59;;;-3.32;84.92
24620;BME280;12763;55.802;37.404;2023-02-19T06:30:34;97700.41;;;-3.18;83.94
24620;BME280;12763;55.802;37.404;2023-02-19T06:33:00;97690.56;;;-3.11;83.06
24620;BME280;12763;55.802;37.404;2023-02-19T06:35:26;97693.47;;;-3.12;82.84
24620;BME280;12763;55.802;37.404;2023-02-19T06:37:52;97692.78;;;-3.14;83.02
24620;BME280;12763;55.802;37.404;2023-02-19T06:40:18;97682.28;;;-3.09;83.82
24620;BME280;12763;55.802;37.404;2023-02-19T06:42:44;97684.78;;;-3.00;82.52
24620;BME280;12763;55.802;37.404;2023-02-19T06:45:09;97680.81;;;-2.89;82.23
24620;BME280;12763;55.802;37.404;2023-02-19T06:47:35;97673.69;;;-2.82;81.74
24620;BME280;12763;55.802;37.404;2023-02-19T06:50:01;97670.59;;;-2.79;81.73
24620;BME280;12763;55.802;37.404;2023-02-19T06:52:29;97682.53;;;-2.73;80.42
24620;BME280;12763;55.802;37.404;2023-02-19T06:54:55;97665.28;;;-2.87;80.10
24620;BME280;12763;55.802;37.404;2023-02-19T06:57:20;97671.69;;;-3.41;81.20
24620;BME280;12763;55.802;37.404;2023-02-19T06:59:46;97673.53;;;-3.11;83.59
24620;BME280;12763;55.802;37.404;2023-02-19T07:02:12;97662.97;;;-2.90;80.97
24620;BME280;12763;55.802;37.404;2023-02-19T07:04:38;97661.22;;;-2.83;79.78
24620;BME280;12763;55.802;37.404;2023-02-19T07:07:04;97658.38;;;-3.12;80.87
24620;BME280;12763;55.802;37.404;2023-02-19T07:09:30;97650.91;;;-2.79;80.75
24620;BME280;12763;55.802;37.404;2023-02-19T07:11:56;97650.75;;;-3.09;81.71
24620;BME280;12763;55.802;37.404;2023-02-19T07:14:22;97658.41;;;-3.20;82.83
24620;BME280;12763;55.802;37.404;2023-02-19T07:16:48;97643.41;;;-3.23;82.09
24620;BME280;12763;55.802;37.404;2023-02-19T07:19:14;97654.50;;;-3.10;81.17
24620;BME280;12763;55.802;37.404;2023-02-19T07:21:40;97645.47;;;-3.25;82.12
24620;BME280;12763;55.802;37.404;2023-02-19T07:24:07;97657.25;;;-3.26;81.99
24620;BME280;12763;55.802;37.404;2023-02-19T07:26:34;97641.88;;;-3.17;82.39
24620;BME280;12763;55.802;37.404;2023-02-19T07:29:00;97641.81;;;-2.86;80.92
24620;BME280;12763;55.802;37.404;2023-02-19T07:31:27;97643.06;;;-3.20;81.53
24620;BME280;12763;55.802;37.404;2023-02-19T07:33:53;97641.50;;;-3.14;82.67
24620;BME280;12763;55.802;37.404;2023-02-19T07:36:21;97641.16;;;-2.88;83.27
24620;BME280;12763;55.802;37.404;2023-02-19T07:38:57;97627.81;;;-2.82;82.05
24620;BME280;12763;55.802;37.404;2023-02-19T07:41:24;97631.09;;;-2.72;82.19
24620;BME280;12763;55.802;37.404;2023-02-19T07:43:51;97629.47;;;-2.81;82.84
24620;BME280;12763;55.802;37.404;2023-02-19T07:46:18;97634.22;;;-2.83;83.12
24620;BME280;12763;55.802;37.404;2023-02-19T07:48:44;97631.38;;;-2.67;82.30
24620;BME280;12763;55.802;37.404;2023-02-19T07:51:15;97629.78;;;-2.39;81.02
24620;BME280;12763;55.802;37.404;2023-02-19T07:53:44;97629.41;;;-2.73;81.99
24620;BME280;12763;55.802;37.404;2023-02-19T07:56:11;97627.63;;;-2.43;80.80
24620;BME280;12763;55.802;37.404;2023-02-19T07:58:40;97619.81;;;-2.23;79.72
24620;BME280;12763;55.802;37.404;2023-02-19T08:01:08;97612.41;;;-2.59;80.41
24620;BME280;12763;55.802;37.404;2023-02-19T08:03:36;97617.13;;;-2.38;80.26
24620;BME280;12763;55.802;37.404;2023-02-19T08:06:02;97609.50;;;-2.05;78.50
24620;BME280;12763;55.802;37.404;2023-02-19T08:08:28;97614.41;;;-2.23;79.33
24620;BME280;12763;55.802;37.404;2023-02-19T08:10:54;97602.88;;;-2.17;78.38
24620;BME280;12763;55.802;37.404;2023-02-19T08:13:38;97606.50;;;-2.25;78.35
24620;BME280;12763;55.802;37.404;2023-02-19T08:18:31;97603.16;;;-2.12;78.00
24620;BME280;12763;55.802;37.404;2023-02-19T08:20:58;97610.16;;;-1.74;77.09
24620;BME280;12763;55.802;37.404;2023-02-19T08:23:24;97600.66;;;-1.99;76.31
24620;BME280;12763;55.802;37.404;2023-02-19T08:25:51;97604.06;;;-1.76;75.40
24620;BME280;12763;55.802;37.404;2023-02-19T08:28:18;97601.63;;;-1.56;75.16
24620;BME280;12763;55.802;37.404;2023-02-19T08:30:45;97605.66;;;-1.67;74.72
24620;BME280;12763;55.802;37.404;2023-02-19T08:33:14;97603.91;;;-1.74;74.66
24620;BME280;12763;55.802;37.404;2023-02-19T08:35:40;97599.88;;;-1.64;74.05
24620;BME280;12763;55.802;37.404;2023-02-19T08:38:08;97600.63;;;-1.70;75.18
24620;BME280;12763;55.802;37.404;2023-02-19T08:40:36;97589.44;;;-1.67;74.40
24620;BME280;12763;55.802;37.404;2023-02-19T08:43:07;97601.19;;;-1.74;75.13
24620;BME280;12763;55.802;37.404;2023-02-19T08:45:35;97591.44;;;-2.05;74.80
24620;BME280;12763;55.802;37.404;2023-02-19T08:48:01;97596.53;;;-1.95;75.59
24620;BME280;12763;55.802;37.404;2023-02-19T08:50:27;97595.78;;;-1.89;75.45
24620;BME280;12763;55.802;37.404;2023-02-19T08:52:53;97599.97;;;-1.72;74.42
24620;BME280;12763;55.802;37.404;2023-02-19T08:55:19;97587.09;;;-1.70;74.38
24620;BME280;12763;55.802;37.404;2023-02-19T08:57:45;97584.97;;;-1.89;74.55
24620;BME280;12763;55.802;37.404;2023-02-19T09:00:11;97579.25;;;-1.65;74.06
24620;BME280;12763;55.802;37.404;2023-02-19T09:02:37;97577.25;;;-1.77;75.27
24620;BME280;12763;55.802;37.404;2023-02-19T09:05:03;97579.41;;;-2.02;75.33
24620;BME280;12763;55.802;37.404;2023-02-19T09:07:30;97574.38;;;-2.05;76.71
24620;BME280;12763;55.802;37.404;2023-02-19T09:09:56;97572.22;;;-2.24;77.71
24620;BME280;12763;55.802;37.404;2023-02-19T09:12:23;97572.56;;;-2.42;78.03
24620;BME280;12763;55.802;37.404;2023-02-19T09:14:49;97574.56;;;-2.21;77.88
24620;BME280;12763;55.802;37.404;2023-02-19T09:17:16;97575.28;;;-2.27;77.69
24620;BME280;12763;55.802;37.404;2023-02-19T09:19:41;97569.16;;;-2.21;77.89
24620;BME280;12763;55.802;37.404;2023-02-19T09:22:07;97573.53;;;-1.91;76.33
24620;BME280;12763;55.802;37.404;2023-02-19T09:24:33;97571.25;;;-1.88;76.38
24620;BME280;12763;55.802;37.404;2023-02-19T09:26:59;97563.28;;;-1.60;74.95
24620;BME280;12763;55.802;37.404;2023-02-19T09:29:26;97557.50;;;-1.57;74.98
24620;BME280;12763;55.802;37.404;2023-02-19T09:31:57;97566.44;;;-1.42;75.11
24620;BME280;12763;55.802;37.404;2023-02-19T09:34:24;97560.06;;;-1.85;75.40
24620;BME280;12763;55.802;37.404;2023-02-19T09:36:51;97557.41;;;-1.99;76.15
24620;BME280;12763;55.802;37.404;2023-02-19T09:39:17;97559.91;;;-1.83;76.19
24620;BME280;12763;55.802;37.404;2023-02-19T09:41:53;97555.72;;;-2.00;79.02
24620;BME280;12763;55.802;37.404;2023-02-19T09:44:38;97549.03;;;-2.19;80.03
24620;BME280;12763;55.802;37.404;2023-02-19T09:47:17;97548.09;;;-1.97;79.72
24620;BME280;12763;55.802;37.404;2023-02-19T09:49:46;97544.75;;;-1.63;78.43
24620;BME280;12763;55.802;37.404;2023-02-19T09:55:17;97544.97;;;-1.43;76.61
24620;BME280;12763;55.802;37.404;2023-02-19T09:57:47;97544.19;;;-1.58;74.84
24620;BME280;12763;55.802;37.404;2023-02-19T10:00:24;97544.00;;;-1.57;73.84
24620;BME280;12763;55.802;37.404;2023-02-19T10:08:44;97537.06;;;-1.45;79.33
24620;BME280;12763;55.802;37.404;2023-02-19T10:11:11;97534.22;;;-1.37;75.00
24620;BME280;12763;55.802;37.404;2023-02-19T10:13:44;97531.22;;;-1.63;74.98
24620;BME280;12763;55.802;37.404;2023-02-19T10:16:21;97547.38;;;-1.55;74.52
24620;BME280;12763;55.802;37.404;2023-02-19T10:18:48;97532.22;;;-1.85;74.52
24620;BME280;12763;55.802;37.404;2023-02-19T10:21:17;97533.22;;;-1.14;74.00
24620;BME280;12763;55.802;37.404;2023-02-19T10:23:53;97537.31;;;-1.40;73.64
24620;BME280;12763;55.802;37.404;2023-02-19T10:26:21;97542.22;;;-1.50;73.48
24620;BME280;12763;55.802;37.404;2023-02-19T10:28:47;97535.91;;;-1.14;72.03
24620;BME280;12763;55.802;37.404;2023-02-19T10:31:21;97545.00;;;-1.01;71.65
24620;BME280;12763;55.802;37.404;2023-02-19T10:33:50;97534.63;;;-0.97;72.11
24620;BME280;12763;55.802;37.404;2023-02-19T10:36:48;97530.44;;;-1.21;71.81
24620;BME280;12763;55.802;37.404;2023-02-19T10:39:43;97532.00;;;-1.12;70.54
24620;BME280;12763;55.802;37.404;2023-02-19T10:42:22;97531.47;;;-1.01;72.27
24620;BME280;12763;55.802;37.404;2023-02-19T10:44:52;97526.00;;;-1.29;71.78
24620;BME280;12763;55.802;37.404;2023-02-19T10:47:21;97530.63;;;-1.23;72.14
24620;BME280;12763;55.802;37.404;2023-02-19T10:49:48;97518.59;;;-1.41;71.45
24620;BME280;12763;55.802;37.404;2023-02-19T10:54:48;97520.50;;;-1.56;72.10
24620;BME280;12763;55.802;37.404;2023-02-19T11:00:01;97516.44;;;-1.03;71.67
24620;BME280;12763;55.802;37.404;2023-02-19T11:02:30;97515.03;;;-1.21;71.86
24620;BME280;12763;55.802;37.404;2023-02-19T11:07:38;97507.31;;;-0.13;69.12
24620;BME280;12763;55.802;37.404;2023-02-19T11:10:29;97513.72;;;0.21;66.76
24620;BME280;12763;55.802;37.404;2023-02-19T11:13:02;97500.25;;;0.40;66.04
24620;BME280;12763;55.802;37.404;2023-02-19T11:15:34;97490.69;;;0.57;65.02
24620;BME280;12763;55.802;37.404;2023-02-19T11:20:58;97501.25;;;-0.15;65.34
24620;BME280;12763;55.802;37.404;2023-02-19T11:23:33;97504.59;;;-0.13;66.73
24620;BME280;12763;55.802;37.404;2023-02-19T11:26:03;97512.63;;;-0.60;66.90
24620;BME280;12763;55.802;37.404;2023-02-19T11:28:33;97499.44;;;-0.97;67.06
24620;BME280;12763;55.802;37.404;2023-02-19T11:33:55;97504.22;;;-1.21;73.57
24620;BME280;12763;55.802;37.404;2023-02-19T11:38:53;97505.34;;;-1.72;72.19
24620;BME280;12763;55.802;37.404;2023-02-19T11:41:33;97502.53;;;-1.64;70.79
24620;BME280;12763;55.802;37.404;2023-02-19T12:01:22;97488.38;;;-1.66;70.03
24620;BME280;12763;55.802;37.404;2023-02-19T12:09:44;97489.91;;;-1.14;68.37
24620;BME280;12763;55.802;37.404;2023-02-19T12:12:25;97494.44;;;-0.94;68.34
24620;BME280;12763;55.802;37.404;2023-02-19T12:17:44;97491.84;;;-1.08;68.09
24620;BME280;12763;55.802;37.404;2023-02-19T12:25:57;97488.50;;;-1.53;69.56
24620;BME280;12763;55.802;37.404;2023-02-19T12:31:48;97496.78;;;-1.54;70.11
24620;BME280;12763;55.802;37.404;2023-02-19T12:39:54;97492.97;;;-1.81;73.67
24620;BME280;12763;55.802;37.404;2023-02-19T12:45:23;97503.13;;;-1.83;74.49
24620;BME280;12763;55.802;37.404;2023-02-19T12:48:31;97490.47;;;-1.61;74.05
24620;BME280;12763;55.802;37.404;2023-02-19T12:51:14;97494.16;;;-1.48;73.32
24620;BME280;12763;55.802;37.404;2023-02-19T12:56:49;97497.59;;;-1.75;73.73
24620;BME280;12763;55.802;37.404;2023-02-19T12:59:30;97496.97;;;-1.77;73.09
24620;BME280;12763;55.802;37.404;2023-02-19T13:02:08;97499.53;;;-2.05;74.11
24620;BME280;12763;55.802;37.404;2023-02-19T13:07:31;97510.13;;;-1.53;73.13
24620;BME280;12763;55.802;37.404;2023-02-19T13:12:48;97507.31;;;-1.81;73.52
24620;BME280;12763;55.802;37.404;2023-02-19T13:17:52;97497.72;;;-1.83;74.05
24620;BME280;12763;55.802;37.404;2023-02-19T13:36:34;97501.56;;;-1.92;77.21
24620;BME280;12763;55.802;37.404;2023-02-19T13:39:03;97503.25;;;-1.91;76.80
24620;BME280;12763;55.802;37.404;2023-02-19T13:41:38;97504.22;;;-2.13;78.77
24620;BME280;12763;55.802;37.404;2023-02-19T13:44:06;97502.13;;;-1.97;77.58
24620;BME280;12763;55.802;37.404;2023-02-19T13:46:43;97496.38;;;-1.72;76.55
24620;BME280;12763;55.802;37.404;2023-02-19T13:51:58;97498.38;;;-1.81;77.32
24620;BME280;12763;55.802;37.404;2023-02-19T13:54:31;97495.66;;;-1.81;77.98
24620;BME280;12763;55.802;37.404;2023-02-19T13:59:43;97490.22;;;-2.17;78.45
24620;BME280;12763;55.802;37.404;2023-02-19T14:04:56;97485.88;;;-2.32;79.70
24620;BME280;12763;55.802;37.404;2023-02-19T14:10:04;97478.50;;;-2.24;79.81
24620;BME280;12763;55.802;37.404;2023-02-19T14:12:34;97482.31;;;-2.18;79.39
24620;BME280;12763;55.802;37.404;2023-02-19T14:18:42;97471.78;;;-2.28;80.79
24620;BME280;12763;55.802;37.404;2023-02-19T14:21:21;97480.75;;;-2.42;82.83
24620;BME280;12763;55.802;37.404;2023-02-19T14:24:11;97475.25;;;-2.19;82.58
24620;BME280;12763;55.802;37.404;2023-02-19T14:26:39;97483.06;;;-2.24;81.89
24620;BME280;12763;55.802;37.404;2023-02-19T14:29:07;97475.97;;;-2.25;81.72
24620;BME280;12763;55.802;37.404;2023-02-19T14:31:36;97479.31;;;-2.23;81.89
24620;BME280;12763;55.802;37.404;2023-02-19T14:34:16;97472.72;;;-2.21;82.74
24620;BME280;12763;55.802;37.404;2023-02-19T14:36:52;97475.50;;;-2.14;82.10
24620;BME280;12763;55.802;37.404;2023-02-19T14:39:30;97474.97;;;-2.24;82.70
24620;BME280;12763;55.802;37.404;2023-02-19T14:42:06;97466.50;;;-2.21;82.31
24620;BME280;12763;55.802;37.404;2023-02-19T14:47:17;97462.03;;;-2.44;83.49
24620;BME280;12763;55.802;37.404;2023-02-19T14:55:00;97471.63;;;-2.56;84.87
24620;BME280;12763;55.802;37.404;2023-02-19T14:57:31;97452.88;;;-2.43;84.36
24620;BME280;12763;55.802;37.404;2023-02-19T15:00:15;97447.78;;;-2.52;85.42
24620;BME280;12763;55.802;37.404;2023-02-19T15:02:44;97449.28;;;-2.50;84.72
24620;BME280;12763;55.802;37.404;2023-02-19T15:05:24;97456.00;;;-2.60;83.99
24620;BME280;12763;55.802;37.404;2023-02-19T15:07:52;97455.44;;;-2.56;85.16
24620;BME280;12763;55.802;37.404;2023-02-19T15:10:19;97456.91;;;-2.68;84.69
24620;BME280;12763;55.802;37.404;2023-02-19T15:12:48;97464.84;;;-2.52;84.91
24620;BME280;12763;55.802;37.404;2023-02-19T15:15:20;97451.50;;;-2.53;85.20
24620;BME280;12763;55.802;37.404;2023-02-19T15:17:46;97460.66;;;-2.54;84.02
24620;BME280;12763;55.802;37.404;2023-02-19T15:20:18;97455.63;;;-2.57;84.62
24620;BME280;12763;55.802;37.404;2023-02-19T15:22:45;97453.84;;;-2.50;84.32
24620;BME280;12763;55.802;37.404;2023-02-19T15:25:15;97450.88;;;-2.41;84.30
24620;BME280;12763;55.802;37.404;2023-02-19T15:27:44;97455.13;;;-2.31;83.24
24620;BME280;12763;55.802;37.404;2023-02-19T15:30:25;97451.50;;;-2.24;83.22
24620;BME280;12763;55.802;37.404;2023-02-19T15:32:57;97456.06;;;-2.24;82.92